Time;durP1;ratioP1;P1;durP2;ratioP2;P2;SDS_P1;SDS_P2;PMS_P1;PMS_P2;Temp;Humidity;BMP_temperature;BMP_pressure;BME280_temperature;BME280_humidity;BME280_pressure;Samples;Min_cycle;Max_cycle;Signal;HPM_P1;HPM_P2
2023/07/27 00:00:14;;;;;;;8.73;3.58;;;14.80;72.00;;;;;;5049039;28;20145;-73
2023/07/27 00:02:43;;;;;;;8.18;3.75;;;14.70;72.00;;;;;;5049598;28;20538;-74
2023/07/27 00:05:12;;;;;;;7.57;3.47;;;14.70;72.00;;;;;;5083022;28;20231;-74
2023/07/27 00:07:39;;;;;;;6.70;3.50;;;14.70;72.20;;;;;;5050853;28;20050;-73
2023/07/27 00:10:07;;;;;;;6.50;3.23;;;14.70;72.20;;;;;;5083000;28;20516;-73
2023/07/27 00:12:34;;;;;;;7.60;3.20;;;14.70;72.20;;;;;;5049631;28;20459;-74
2023/07/27 00:15:06;;;;;;;7.60;3.80;;;14.70;72.30;;;;;;5050775;28;20132;-73
2023/07/27 00:17:33;;;;;;;6.68;3.10;;;14.70;72.50;;;;;;5050196;28;20057;-73
2023/07/27 00:20:00;;;;;;;6.90;3.28;;;14.70;72.50;;;;;;5048742;28;20066;-73
2023/07/27 00:22:28;;;;;;;7.43;3.57;;;14.70;72.70;;;;;;5050374;28;20060;-73
2023/07/27 00:24:55;;;;;;;6.88;3.33;;;14.60;72.70;;;;;;5050407;28;20049;-73
2023/07/27 00:27:23;;;;;;;6.93;3.33;;;14.60;72.80;;;;;;5048970;28;20552;-73
2023/07/27 00:29:50;;;;;;;6.07;3.13;;;14.60;72.80;;;;;;5049039;28;20045;-73
2023/07/27 00:32:17;;;;;;;7.25;3.30;;;14.60;73.10;;;;;;5049977;28;20547;-73
2023/07/27 00:34:44;;;;;;;8.00;3.40;;;14.60;73.00;;;;;;5082670;28;20056;-73
2023/07/27 00:37:13;;;;;;;7.75;3.15;;;14.60;73.10;;;;;;5048926;28;20053;-73
2023/07/27 00:39:42;;;;;;;6.80;3.30;;;14.60;73.00;;;;;;5050176;28;20104;-74
2023/07/27 00:42:09;;;;;;;7.43;3.35;;;14.50;73.20;;;;;;5048672;28;20149;-73
2023/07/27 00:44:36;;;;;;;6.68;3.42;;;14.50;73.10;;;;;;5065552;28;20116;-73
2023/07/27 00:47:03;;;;;;;6.97;3.30;;;14.50;73.20;;;;;;5048936;28;20822;-73
2023/07/27 00:49:31;;;;;;;6.53;3.20;;;14.50;73.40;;;;;;5032063;28;20128;-73
2023/07/27 00:52:49;;;;;;;8.05;3.50;;;14.50;73.40;;;;;;5032624;28;20132;-73
2023/07/27 00:55:18;;;;;;;7.22;3.40;;;14.50;73.40;;;;;;5065152;28;20104;-73
2023/07/27 00:57:45;;;;;;;7.45;3.70;;;14.50;73.50;;;;;;5049596;28;20059;-74
2023/07/27 01:00:14;;;;;;;6.30;3.13;;;14.50;73.60;;;;;;5047980;28;20049;-73
2023/07/27 01:02:41;;;;;;;7.35;3.30;;;14.40;73.60;;;;;;5049795;28;20438;-73
2023/07/27 01:05:08;;;;;;;7.57;3.40;;;14.40;73.80;;;;;;5048040;28;20061;-74
2023/07/27 01:07:35;;;;;;;8.48;3.45;;;14.40;73.90;;;;;;5048183;28;20594;-74
2023/07/27 01:10:02;;;;;;;7.00;3.50;;;14.40;73.90;;;;;;5047903;28;20042;-74
2023/07/27 01:12:39;;;;;;;6.90;3.27;;;14.40;73.90;;;;;;5043991;28;20125;-73
2023/07/27 01:15:10;;;;;;;7.07;3.05;;;14.40;74.00;;;;;;5047423;28;20058;-74
2023/07/27 01:17:44;;;;;;;6.95;3.45;;;14.40;74.00;;;;;;5059105;28;20141;-73
2023/07/27 01:20:19;;;;;;;7.05;3.28;;;14.40;74.20;;;;;;5021147;28;20041;-74
2023/07/27 01:23:12;;;;;;;8.25;3.40;;;14.40;74.20;;;;;;5031670;28;20261;-74
2023/07/27 01:26:02;;;;;;;7.20;3.20;;;14.40;74.20;;;;;;5048034;28;20133;-74
2023/07/27 01:28:55;;;;;;;7.10;3.25;;;14.40;74.20;;;;;;5044963;28;20471;-73
2023/07/27 01:31:26;;;;;;;7.10;3.40;;;14.40;74.10;;;;;;5039021;28;20081;-73
2023/07/27 01:33:59;;;;;;;7.97;3.67;;;14.40;74.30;;;;;;5082052;28;20215;-74
2023/07/27 01:36:29;;;;;;;7.32;3.55;;;14.40;74.30;;;;;;5049085;28;20085;-74
2023/07/27 01:39:02;;;;;;;8.50;3.80;;;14.40;74.20;;;;;;5081456;28;20136;-74
2023/07/27 01:41:31;;;;;;;7.28;3.33;;;14.40;74.20;;;;;;5064254;28;20045;-74
2023/07/27 01:44:00;;;;;;;9.38;3.90;;;14.40;74.10;;;;;;5064370;28;20054;-73
2023/07/27 01:46:30;;;;;;;9.30;3.80;;;14.40;74.10;;;;;;5047459;28;20123;-73
2023/07/27 01:48:57;;;;;;;8.10;3.80;;;14.40;74.20;;;;;;5047970;28;20079;-73
2023/07/27 01:51:26;;;;;;;9.10;3.40;;;14.40;74.30;;;;;;5046499;28;20075;-74
2023/07/27 01:53:54;;;;;;;8.32;3.65;;;14.40;74.20;;;;;;5064642;28;20053;-73
2023/07/27 01:56:22;;;;;;;7.88;3.83;;;14.40;74.20;;;;;;5047452;28;20054;-73
2023/07/27 01:58:51;;;;;;;8.55;3.50;;;14.40;74.20;;;;;;5047250;28;20083;-74
2023/07/27 02:01:18;;;;;;;8.65;3.80;;;14.40;74.20;;;;;;5062608;28;20057;-74
2023/07/27 02:03:48;;;;;;;7.83;3.63;;;14.40;74.10;;;;;;5047185;28;20041;-73
2023/07/27 02:06:15;;;;;;;8.38;3.92;;;14.50;74.30;;;;;;5046896;28;20049;-73
2023/07/27 02:08:42;;;;;;;9.65;4.35;;;14.50;74.10;;;;;;5064559;28;20059;-74
2023/07/27 02:11:11;;;;;;;7.80;3.65;;;14.50;74.20;;;;;;5046680;28;20073;-73
2023/07/27 02:13:42;;;;;;;7.60;3.45;;;14.50;74.20;;;;;;5047185;28;20131;-74
2023/07/27 02:16:16;;;;;;;8.60;3.93;;;14.50;74.20;;;;;;5030646;28;20133;-74
2023/07/27 02:18:46;;;;;;;7.65;3.35;;;14.50;74.30;;;;;;5047006;28;20049;-73
2023/07/27 02:21:15;;;;;;;7.57;3.85;;;14.50;74.20;;;;;;5080879;28;20108;-73
2023/07/27 02:23:42;;;;;;;6.82;3.30;;;14.50;74.20;;;;;;5047500;28;20053;-74
2023/07/27 02:26:10;;;;;;;7.15;3.72;;;14.50;74.30;;;;;;5030406;28;20149;-74
2023/07/27 02:28:37;;;;;;;7.00;3.47;;;14.50;74.50;;;;;;5030390;28;20129;-74
2023/07/27 02:31:03;;;;;;;8.10;3.65;;;14.50;74.60;;;;;;5048067;28;20136;-74
2023/07/27 02:33:31;;;;;;;7.85;3.60;;;14.60;74.90;;;;;;5047081;28;20100;-74
2023/07/27 02:35:58;;;;;;;6.97;3.38;;;14.60;75.10;;;;;;5046928;28;20132;-73
2023/07/27 02:38:26;;;;;;;8.73;3.85;;;14.60;75.00;;;;;;5030354;28;20049;-74
2023/07/27 02:40:53;;;;;;;7.80;3.83;;;14.60;75.00;;;;;;5029977;28;20496;-74
2023/07/27 02:43:20;;;;;;;7.70;3.60;;;14.60;74.70;;;;;;5030487;28;20565;-74
2023/07/27 02:45:47;;;;;;;7.90;4.03;;;14.60;74.70;;;;;;5030074;28;20187;-73
2023/07/27 02:48:14;;;;;;;10.00;4.28;;;14.60;74.70;;;;;;5046781;28;20049;-74
2023/07/27 02:50:49;;;;;;;7.85;3.50;;;14.60;74.90;;;;;;5047011;28;20079;-74
2023/07/27 02:53:16;;;;;;;8.47;4.00;;;14.60;75.00;;;;;;5046798;28;20554;-74
2023/07/27 02:55:56;;;;;;;7.60;3.90;;;14.60;75.10;;;;;;5046566;28;20487;-74
2023/07/27 02:58:23;;;;;;;8.93;4.40;;;14.60;75.10;;;;;;5046281;28;20053;-74
2023/07/27 03:00:51;;;;;;;9.48;4.28;;;14.60;75.20;;;;;;5046654;28;20058;-74
2023/07/27 03:03:18;;;;;;;8.77;4.63;;;14.60;75.10;;;;;;5050091;28;20565;-74
2023/07/27 03:05:46;;;;;;;8.23;4.40;;;14.60;75.10;;;;;;5050169;28;20049;-74
2023/07/27 03:08:16;;;;;;;8.38;4.70;;;14.60;75.10;;;;;;5033628;28;20049;-74
2023/07/27 03:10:43;;;;;;;9.05;4.82;;;14.60;74.90;;;;;;5033307;28;20046;-73
2023/07/27 03:13:11;;;;;;;9.95;4.95;;;14.60;74.80;;;;;;5032904;28;20049;-74
2023/07/27 03:15:41;;;;;;;9.50;4.90;;;14.60;75.00;;;;;;5051652;28;20046;-73
2023/07/27 03:18:10;;;;;;;10.50;4.70;;;14.60;75.00;;;;;;5049911;28;20051;-74
2023/07/27 03:20:40;;;;;;;10.77;4.95;;;14.60;75.10;;;;;;5032911;28;20081;-74
2023/07/27 03:23:07;;;;;;;9.07;4.72;;;14.50;75.20;;;;;;5049485;28;20518;-74
2023/07/27 03:25:34;;;;;;;9.70;4.95;;;14.50;75.50;;;;;;5033163;28;20061;-74
2023/07/27 03:28:02;;;;;;;9.25;4.93;;;14.50;75.50;;;;;;5050152;28;20437;-74
2023/07/27 03:30:30;;;;;;;10.13;4.73;;;14.50;75.70;;;;;;5049167;28;20057;-74
2023/07/27 03:32:57;;;;;;;8.38;4.55;;;14.50;76.20;;;;;;5033530;28;20132;-74
2023/07/27 03:35:24;;;;;;;11.35;5.13;;;14.50;76.00;;;;;;5049614;28;20050;-73
2023/07/27 03:37:51;;;;;;;10.43;5.25;;;14.50;76.50;;;;;;5050912;28;20053;-74
2023/07/27 03:40:18;;;;;;;9.43;4.68;;;14.50;76.70;;;;;;5032579;28;20124;-74
2023/07/27 03:42:45;;;;;;;9.13;5.40;;;14.50;77.00;;;;;;5032360;28;20143;-74
2023/07/27 03:45:14;;;;;;;9.85;4.70;;;14.50;77.10;;;;;;5032650;28;20076;-74
2023/07/27 03:47:44;;;;;;;10.20;5.13;;;14.40;77.20;;;;;;5049547;28;20045;-73
2023/07/27 03:50:12;;;;;;;8.85;4.80;;;14.40;77.20;;;;;;5032910;28;20200;-73
2023/07/27 03:52:40;;;;;;;9.90;4.80;;;14.40;77.50;;;;;;5032456;28;20042;-73
2023/07/27 03:55:11;;;;;;;9.43;4.53;;;14.40;77.50;;;;;;5032585;28;20053;-73
2023/07/27 03:57:38;;;;;;;9.73;5.00;;;14.40;77.50;;;;;;5032347;28;20123;-74
2023/07/27 04:00:07;;;;;;;10.13;5.20;;;14.30;77.60;;;;;;5048942;28;20049;-73
2023/07/27 04:02:40;;;;;;;10.00;4.90;;;14.30;77.90;;;;;;5049225;28;20140;-73
2023/07/27 04:05:09;;;;;;;10.98;5.07;;;14.30;78.00;;;;;;5048781;28;20045;-74
2023/07/27 04:07:36;;;;;;;8.90;4.83;;;14.30;78.20;;;;;;5049179;28;20077;-73
2023/07/27 04:10:03;;;;;;;9.73;4.82;;;14.30;78.50;;;;;;5032014;28;20656;-73
2023/07/27 04:12:30;;;;;;;9.77;5.13;;;14.30;78.60;;;;;;5050120;28;20053;-73
2023/07/27 04:14:57;;;;;;;10.40;5.18;;;14.30;78.80;;;;;;5032034;28;20597;-74
2023/07/27 04:17:24;;;;;;;9.00;4.57;;;14.30;78.90;;;;;;5032212;28;20050;-74
2023/07/27 04:19:51;;;;;;;9.07;4.60;;;14.30;79.10;;;;;;5032236;28;20054;-73
2023/07/27 04:22:19;;;;;;;8.60;4.43;;;14.30;79.10;;;;;;5050083;28;20369;-74
2023/07/27 04:24:46;;;;;;;8.70;4.35;;;14.30;79.30;;;;;;5032078;28;20041;-73
2023/07/27 04:27:13;;;;;;;10.50;4.50;;;14.30;79.40;;;;;;5048997;28;20120;-74
2023/07/27 04:29:40;;;;;;;8.50;4.80;;;14.30;79.50;;;;;;5032519;28;20042;-74
2023/07/27 04:32:08;;;;;;;8.83;4.60;;;14.30;79.60;;;;;;5048132;28;20107;-73
2023/07/27 04:34:36;;;;;;;9.40;4.90;;;14.30;79.80;;;;;;5048635;28;20047;-74
2023/07/27 04:37:03;;;;;;;10.18;4.85;;;14.30;79.90;;;;;;5048718;28;20053;-74
2023/07/27 04:39:32;;;;;;;9.18;5.25;;;14.30;80.00;;;;;;5048507;28;20148;-74
2023/07/27 04:41:58;;;;;;;9.18;4.57;;;14.30;80.10;;;;;;5031726;28;20519;-74
2023/07/27 04:44:26;;;;;;;8.37;4.73;;;14.30;80.10;;;;;;5048631;28;20053;-74
2023/07/27 04:46:53;;;;;;;9.00;4.25;;;14.30;80.20;;;;;;5048548;28;20049;-73
2023/07/27 04:49:20;;;;;;;8.18;4.43;;;14.30;80.40;;;;;;5048491;28;20053;-74
2023/07/27 04:51:47;;;;;;;8.95;4.68;;;14.30;80.50;;;;;;5031540;28;20084;-74
2023/07/27 04:54:14;;;;;;;8.95;4.65;;;14.30;80.70;;;;;;5049707;28;20060;-74
2023/07/27 04:56:42;;;;;;;9.43;4.67;;;14.30;80.80;;;;;;5049924;28;20057;-74
2023/07/27 04:59:09;;;;;;;8.27;4.53;;;14.30;81.00;;;;;;5047775;28;20427;-74
2023/07/27 05:01:36;;;;;;;8.20;4.50;;;14.30;80.90;;;;;;5037527;28;20050;-74
2023/07/27 05:04:03;;;;;;;8.57;4.60;;;14.30;81.20;;;;;;5046960;28;20046;-74
2023/07/27 05:06:30;;;;;;;8.52;4.47;;;14.30;81.10;;;;;;5048639;28;20063;-74
2023/07/27 05:08:57;;;;;;;7.20;4.00;;;14.30;81.20;;;;;;5048174;28;20120;-74
2023/07/27 05:11:24;;;;;;;9.90;4.70;;;14.40;81.50;;;;;;5048829;28;20050;-74
2023/07/27 05:13:52;;;;;;;9.25;4.07;;;14.40;81.50;;;;;;5056148;28;20041;-74
2023/07/27 05:16:19;;;;;;;7.28;3.83;;;14.40;81.60;;;;;;5050657;28;20059;-74
2023/07/27 05:18:46;;;;;;;8.23;4.18;;;14.40;81.60;;;;;;5056954;28;20056;-74
2023/07/27 05:21:14;;;;;;;9.07;4.67;;;14.40;81.50;;;;;;5065346;28;20057;-74
2023/07/27 05:23:41;;;;;;;7.32;3.78;;;14.40;81.70;;;;;;5047753;28;20505;-74
2023/07/27 05:26:07;;;;;;;8.00;3.85;;;14.40;81.90;;;;;;5046866;28;20053;-74
2023/07/27 05:28:34;;;;;;;8.63;4.28;;;14.40;81.90;;;;;;5047677;28;20053;-74
2023/07/27 05:31:03;;;;;;;7.80;3.85;;;14.40;81.90;;;;;;5050517;28;20128;-74
2023/07/27 05:33:30;;;;;;;8.13;4.07;;;14.40;82.00;;;;;;5047770;28;20053;-74
2023/07/27 05:35:57;;;;;;;7.43;3.38;;;14.40;81.90;;;;;;5047373;28;20693;-74
2023/07/27 05:38:24;;;;;;;6.55;3.30;;;14.40;82.10;;;;;;5048857;28;20053;-74
2023/07/27 05:40:51;;;;;;;6.13;3.30;;;14.40;82.10;;;;;;5045965;28;20084;-74
2023/07/27 05:43:18;;;;;;;7.78;4.00;;;14.40;82.10;;;;;;5046694;28;20080;-74
2023/07/27 05:45:45;;;;;;;7.07;3.70;;;14.50;82.10;;;;;;5047021;28;20050;-74
2023/07/27 05:48:14;;;;;;;6.85;3.53;;;14.50;82.30;;;;;;5042998;28;20133;-74
2023/07/27 05:50:41;;;;;;;8.65;3.80;;;14.50;82.40;;;;;;5045842;28;20046;-74
2023/07/27 05:53:08;;;;;;;7.53;3.60;;;14.50;82.50;;;;;;5047235;28;20054;-74
2023/07/27 05:55:35;;;;;;;8.05;3.47;;;14.50;82.60;;;;;;5046168;28;20156;-74
2023/07/27 05:58:01;;;;;;;7.30;3.43;;;14.50;82.50;;;;;;5046686;28;20057;-74
2023/07/27 06:00:28;;;;;;;8.05;3.70;;;14.50;82.70;;;;;;5048045;28;20053;-74
2023/07/27 06:02:56;;;;;;;7.35;3.53;;;14.50;82.80;;;;;;5046070;28;20056;-74
2023/07/27 06:05:25;;;;;;;7.53;3.60;;;14.50;82.90;;;;;;5045501;28;20397;-74
2023/07/27 06:07:52;;;;;;;7.63;4.20;;;14.60;83.00;;;;;;5048035;28;20504;-74
2023/07/27 06:10:19;;;;;;;8.07;4.00;;;14.60;83.00;;;;;;5046216;28;20053;-74
2023/07/27 06:12:46;;;;;;;8.52;4.10;;;14.60;83.10;;;;;;5029900;28;20132;-74
2023/07/27 06:15:14;;;;;;;8.70;4.45;;;14.60;83.40;;;;;;5050005;28;20049;-74
2023/07/27 06:17:41;;;;;;;8.93;4.82;;;14.60;83.30;;;;;;5047349;28;20185;-74
2023/07/27 06:20:09;;;;;;;10.02;4.63;;;14.60;83.40;;;;;;5048034;28;20522;-74
2023/07/27 06:22:37;;;;;;;9.53;4.43;;;14.70;83.50;;;;;;5043555;28;20168;-74
2023/07/27 06:25:05;;;;;;;9.68;4.70;;;14.70;83.60;;;;;;5062475;28;20166;-73
2023/07/27 06:27:32;;;;;;;7.85;4.35;;;14.70;83.60;;;;;;5052516;28;20055;-75
2023/07/27 06:29:59;;;;;;;8.02;4.63;;;14.70;83.70;;;;;;5048080;28;20136;-73
2023/07/27 06:32:26;;;;;;;9.02;5.10;;;14.70;84.10;;;;;;5047358;28;20081;-74
2023/07/27 06:34:53;;;;;;;8.70;4.67;;;14.80;84.00;;;;;;5047270;28;20604;-74
2023/07/27 06:37:20;;;;;;;8.18;4.55;;;14.80;84.10;;;;;;5044822;28;20045;-74
2023/07/27 06:39:48;;;;;;;9.13;5.30;;;14.80;84.20;;;;;;5043945;28;20053;-73
2023/07/27 06:42:15;;;;;;;8.63;4.57;;;14.80;84.20;;;;;;5043694;28;20139;-74
2023/07/27 06:44:43;;;;;;;8.65;4.68;;;14.80;84.30;;;;;;5026934;28;20570;-74
2023/07/27 06:47:10;;;;;;;8.70;4.77;;;14.80;84.30;;;;;;5047186;28;20108;-74
2023/07/27 06:49:37;;;;;;;9.35;4.85;;;14.90;84.40;;;;;;5053806;28;20057;-74
2023/07/27 06:52:04;;;;;;;9.35;5.28;;;14.90;84.40;;;;;;5046423;28;20045;-74
2023/07/27 06:54:31;;;;;;;9.40;4.95;;;14.90;84.60;;;;;;5047938;28;20053;-73
2023/07/27 06:56:59;;;;;;;10.05;5.25;;;14.90;84.80;;;;;;5052094;28;20140;-74
2023/07/27 06:59:26;;;;;;;10.73;5.27;;;14.90;84.90;;;;;;5053580;28;20058;-74
2023/07/27 07:01:54;;;;;;;10.48;5.45;;;14.90;84.80;;;;;;5040068;28;20502;-74
2023/07/27 07:04:21;;;;;;;10.05;5.50;;;14.90;85.00;;;;;;5078088;28;20045;-74
2023/07/27 07:06:48;;;;;;;10.20;5.43;;;15.00;84.80;;;;;;5045881;28;20060;-73
2023/07/27 07:09:14;;;;;;;10.32;5.45;;;15.00;85.00;;;;;;5046743;28;20057;-74
2023/07/27 07:11:41;;;;;;;8.97;5.07;;;15.00;85.00;;;;;;5045554;28;20629;-75
2023/07/27 07:14:10;;;;;;;8.45;5.00;;;15.00;85.20;;;;;;5045337;28;20133;-73
2023/07/27 07:16:37;;;;;;;9.27;5.35;;;15.00;85.20;;;;;;5028058;28;20052;-74
2023/07/27 07:19:04;;;;;;;9.02;4.82;;;15.00;85.00;;;;;;5040982;28;20155;-74
2023/07/27 07:21:30;;;;;;;8.18;4.90;;;15.00;85.00;;;;;;5046045;28;20053;-74
2023/07/27 07:23:57;;;;;;;8.77;4.60;;;15.00;85.20;;;;;;5044269;28;20135;-75
2023/07/27 07:26:24;;;;;;;8.73;4.85;;;15.10;85.20;;;;;;5044009;28;20175;-75
2023/07/27 07:28:51;;;;;;;9.90;5.22;;;15.10;85.30;;;;;;5045877;28;20421;-75
2023/07/27 07:31:19;;;;;;;8.32;4.18;;;15.20;85.20;;;;;;5044954;28;20041;-74
2023/07/27 07:33:46;;;;;;;7.32;4.55;;;15.20;85.30;;;;;;5045481;28;20057;-74
2023/07/27 07:36:13;;;;;;;7.93;4.37;;;15.20;85.30;;;;;;5045808;28;20147;-74
2023/07/27 07:38:40;;;;;;;8.63;4.55;;;15.20;85.40;;;;;;5027773;28;20432;-74
2023/07/27 07:41:07;;;;;;;7.55;4.60;;;15.20;85.30;;;;;;5045006;28;20044;-73
2023/07/27 07:43:34;;;;;;;6.80;4.57;;;15.20;85.40;;;;;;5046435;28;20104;-74
2023/07/27 07:46:01;;;;;;;7.40;3.85;;;15.20;85.30;;;;;;5047071;28;20061;-75
2023/07/27 07:48:30;;;;;;;6.90;4.00;;;15.20;85.50;;;;;;5044899;28;20045;-75
2023/07/27 07:50:57;;;;;;;6.38;3.83;;;15.30;85.50;;;;;;5044618;28;20051;-75
2023/07/27 07:53:24;;;;;;;6.93;3.60;;;15.30;85.50;;;;;;5047723;28;20140;-74
2023/07/27 07:55:51;;;;;;;7.55;4.03;;;15.30;85.70;;;;;;5052339;28;20047;-74
2023/07/27 07:58:17;;;;;;;6.82;3.65;;;15.30;85.50;;;;;;5047681;28;20073;-74
2023/07/27 08:00:44;;;;;;;6.20;3.27;;;15.30;85.60;;;;;;5047378;28;20061;-74
2023/07/27 08:03:11;;;;;;;6.38;3.80;;;15.30;85.60;;;;;;5046362;28;20203;-75
2023/07/27 08:05:42;;;;;;;6.05;3.45;;;15.30;85.70;;;;;;5049909;28;20180;-74
2023/07/27 08:08:09;;;;;;;5.82;3.08;;;15.30;85.70;;;;;;5046878;28;20050;-74
2023/07/27 08:10:36;;;;;;;5.00;2.60;;;15.30;85.70;;;;;;5045922;28;20120;-74
2023/07/27 08:13:04;;;;;;;5.43;2.77;;;15.40;86.00;;;;;;5045764;28;20058;-74
2023/07/27 08:15:31;;;;;;;5.68;2.60;;;15.40;86.00;;;;;;5048221;28;20160;-73
2023/07/27 08:17:58;;;;;;;4.88;2.65;;;15.40;86.00;;;;;;5049332;28;20056;-73
2023/07/27 08:20:25;;;;;;;4.72;2.40;;;15.40;86.00;;;;;;5045176;28;20132;-74
2023/07/27 08:22:53;;;;;;;5.03;2.60;;;15.40;85.90;;;;;;5054015;28;20057;-74
2023/07/27 08:25:21;;;;;;;5.30;2.57;;;15.40;86.00;;;;;;5058877;28;20042;-73
2023/07/27 08:27:48;;;;;;;4.70;2.40;;;15.40;86.10;;;;;;5058974;28;20057;-74
2023/07/27 08:30:15;;;;;;;4.25;2.38;;;15.40;86.20;;;;;;5052389;28;20054;-74
2023/07/27 08:32:42;;;;;;;5.15;2.42;;;15.50;86.30;;;;;;5052018;28;20061;-74
2023/07/27 08:35:09;;;;;;;4.35;2.40;;;15.40;86.30;;;;;;5034032;28;20045;-73
2023/07/27 08:37:36;;;;;;;4.57;2.00;;;15.50;86.30;;;;;;5051986;28;20131;-74
2023/07/27 08:40:08;;;;;;;4.75;2.50;;;15.50;86.30;;;;;;5045018;28;20769;-75
2023/07/27 08:42:37;;;;;;;4.57;2.55;;;15.50;86.50;;;;;;5042849;28;20060;-74
2023/07/27 08:45:05;;;;;;;4.57;2.33;;;15.50;86.50;;;;;;5047174;28;20196;-74
2023/07/27 08:47:33;;;;;;;4.70;2.50;;;15.50;86.40;;;;;;5048778;28;20085;-74
2023/07/27 08:50:00;;;;;;;5.10;2.60;;;15.60;86.50;;;;;;5046202;28;20057;-73
2023/07/27 08:52:28;;;;;;;4.68;2.47;;;15.60;86.40;;;;;;5048159;28;20057;-73
2023/07/27 08:54:55;;;;;;;4.97;2.58;;;15.60;86.40;;;;;;5047124;28;20053;-74
2023/07/27 08:57:24;;;;;;;4.93;2.97;;;15.60;86.50;;;;;;5046999;28;20055;-74
2023/07/27 08:59:51;;;;;;;4.75;2.88;;;15.60;86.40;;;;;;5045993;28;20045;-74
2023/07/27 09:02:18;;;;;;;4.40;2.53;;;15.60;86.50;;;;;;5045907;28;20144;-73
2023/07/27 09:04:45;;;;;;;4.75;2.60;;;15.60;86.50;;;;;;5043249;28;20399;-72
2023/07/27 09:07:13;;;;;;;3.95;2.25;;;15.60;86.50;;;;;;5047160;28;20490;-73
2023/07/27 09:09:40;;;;;;;4.70;2.67;;;15.70;86.50;;;;;;5046138;28;20456;-72
2023/07/27 09:12:08;;;;;;;4.38;2.70;;;15.80;86.50;;;;;;5046101;28;20050;-74
2023/07/27 09:14:37;;;;;;;4.53;2.73;;;15.80;86.70;;;;;;5047983;28;20609;-74
2023/07/27 09:17:07;;;;;;;4.75;2.58;;;15.80;86.70;;;;;;5038727;28;20366;-73
2023/07/27 09:19:36;;;;;;;4.85;2.60;;;15.80;86.60;;;;;;5041982;28;20129;-74
2023/07/27 09:22:04;;;;;;;4.03;2.40;;;15.80;86.60;;;;;;5043973;28;20060;-74
2023/07/27 09:24:32;;;;;;;4.28;2.58;;;15.80;86.70;;;;;;5047437;28;20193;-74
2023/07/27 09:27:01;;;;;;;4.13;2.33;;;15.80;86.60;;;;;;5046892;28;20512;-75
2023/07/27 09:29:28;;;;;;;3.88;2.25;;;15.90;86.80;;;;;;5046585;28;20434;-74
2023/07/27 09:31:58;;;;;;;4.55;2.80;;;15.90;86.90;;;;;;5038493;28;20060;-73
2023/07/27 09:34:28;;;;;;;4.13;2.28;;;16.00;86.90;;;;;;5072602;28;20152;-73
2023/07/27 09:36:56;;;;;;;3.72;2.10;;;16.00;86.90;;;;;;5045360;28;20057;-72
2023/07/27 09:39:24;;;;;;;4.77;2.63;;;16.00;87.00;;;;;;5047358;28;20325;-72
2023/07/27 09:41:53;;;;;;;3.78;2.10;;;16.00;87.10;;;;;;5044424;28;20060;-73
2023/07/27 09:44:22;;;;;;;4.43;2.30;;;16.00;87.00;;;;;;5044331;28;20397;-75
2023/07/27 09:46:49;;;;;;;5.00;1.92;;;16.00;87.20;;;;;;5043982;28;20053;-75
2023/07/27 09:49:19;;;;;;;3.42;1.70;;;16.10;87.20;;;;;;5044760;28;20458;-75
2023/07/27 09:51:47;;;;;;;4.23;2.10;;;16.10;87.20;;;;;;5043701;28;20103;-75
2023/07/27 09:54:14;;;;;;;3.78;1.90;;;16.10;87.20;;;;;;5045021;28;20049;-75
2023/07/27 09:56:41;;;;;;;4.20;2.10;;;16.10;87.10;;;;;;5045648;28;20054;-74
2023/07/27 09:59:09;;;;;;;4.25;2.30;;;16.10;87.20;;;;;;5045031;28;20582;-75
2023/07/27 10:01:36;;;;;;;4.03;2.40;;;16.10;87.20;;;;;;5045376;28;20439;-74
2023/07/27 10:04:04;;;;;;;3.77;2.07;;;16.20;87.30;;;;;;5046787;28;20283;-75
2023/07/27 10:06:33;;;;;;;4.10;2.40;;;16.20;87.30;;;;;;5044482;28;20053;-75
2023/07/27 10:09:00;;;;;;;3.72;2.50;;;16.20;87.40;;;;;;5045888;28;20050;-75
2023/07/27 10:11:51;;;;;;;4.30;2.35;;;16.30;87.60;;;;;;5043307;28;20053;-76
2023/07/27 10:14:19;;;;;;;3.80;2.45;;;16.40;87.90;;;;;;5043727;28;20041;-76
2023/07/27 10:16:59;;;;;;;5.23;2.70;;;16.40;87.80;;;;;;5075139;28;20132;-76
2023/07/27 10:19:26;;;;;;;5.10;2.70;;;16.40;88.00;;;;;;5075619;28;20642;-76
2023/07/27 10:21:54;;;;;;;4.97;2.85;;;16.40;88.00;;;;;;5045741;28;20064;-76
2023/07/27 10:24:23;;;;;;;4.20;2.78;;;16.40;88.00;;;;;;5046190;28;20060;-75
2023/07/27 10:26:52;;;;;;;4.70;2.72;;;16.50;88.20;;;;;;5047403;28;20057;-75
2023/07/27 10:29:20;;;;;;;4.60;2.80;;;16.50;88.20;;;;;;5044072;28;20204;-74
2023/07/27 10:32:01;;;;;;;4.55;2.90;;;16.60;88.10;;;;;;5043873;28;20066;-75
2023/07/27 10:34:28;;;;;;;4.30;2.83;;;16.60;88.30;;;;;;5044920;28;20450;-76
2023/07/27 10:36:58;;;;;;;4.80;2.70;;;16.60;88.20;;;;;;5044964;28;20046;-76
2023/07/27 10:39:27;;;;;;;4.68;3.03;;;16.70;88.20;;;;;;5028625;28;20045;-75
2023/07/27 10:42:00;;;;;;;3.87;2.33;;;16.70;88.40;;;;;;5044617;28;20056;-74
2023/07/27 10:44:27;;;;;;;4.78;2.65;;;16.70;88.30;;;;;;5047073;28;20155;-75
2023/07/27 10:46:59;;;;;;;4.72;2.78;;;16.80;88.30;;;;;;5045566;28;20053;-74
2023/07/27 10:49:26;;;;;;;4.28;2.60;;;16.80;88.50;;;;;;5045155;28;20053;-75
2023/07/27 10:51:53;;;;;;;5.32;2.75;;;16.80;88.40;;;;;;5043773;28;20555;-76
2023/07/27 10:54:21;;;;;;;4.80;2.70;;;16.90;88.60;;;;;;5026241;28;20049;-74
2023/07/27 10:56:49;;;;;;;5.60;3.20;;;16.90;88.80;;;;;;5048296;28;20687;-74
2023/07/27 10:59:16;;;;;;;5.68;3.22;;;17.00;88.70;;;;;;5045045;28;20856;-73
2023/07/27 11:01:48;;;;;;;5.50;3.00;;;17.00;88.80;;;;;;5044963;28;20053;-73
2023/07/27 11:04:15;;;;;;;5.53;3.65;;;17.00;88.90;;;;;;5043118;28;20136;-73
2023/07/27 11:06:43;;;;;;;5.70;3.87;;;17.00;89.00;;;;;;5042657;28;20479;-73
2023/07/27 11:09:12;;;;;;;4.97;3.33;;;17.10;89.00;;;;;;5026969;28;20049;-73
2023/07/27 11:11:40;;;;;;;5.40;3.65;;;17.10;89.20;;;;;;5041867;28;20515;-74
2023/07/27 11:14:08;;;;;;;5.72;3.53;;;17.10;89.30;;;;;;5047948;28;20050;-76
2023/07/27 11:16:37;;;;;;;5.65;3.78;;;17.20;89.10;;;;;;5048181;28;20500;-76
2023/07/27 11:19:07;;;;;;;5.60;3.63;;;17.20;89.50;;;;;;5059713;28;20558;-74
2023/07/27 11:21:38;;;;;;;5.97;3.88;;;17.20;89.50;;;;;;5036236;28;20056;-74
2023/07/27 11:24:09;;;;;;;5.70;3.70;;;17.20;89.60;;;;;;5044684;28;20056;-74
2023/07/27 11:26:36;;;;;;;5.57;3.63;;;17.30;89.50;;;;;;5046823;28;20065;-73
2023/07/27 11:29:05;;;;;;;5.88;3.60;;;17.30;89.60;;;;;;5047484;28;20056;-74
2023/07/27 11:31:32;;;;;;;5.63;3.60;;;17.40;89.60;;;;;;5046651;28;20057;-74
2023/07/27 11:34:00;;;;;;;6.53;3.22;;;17.40;89.80;;;;;;5047407;28;20088;-75
2023/07/27 11:36:31;;;;;;;5.20;3.40;;;17.40;89.60;;;;;;5081266;28;20132;-74
2023/07/27 11:38:59;;;;;;;5.53;3.17;;;17.40;89.70;;;;;;5047262;28;20550;-74
2023/07/27 11:41:31;;;;;;;6.15;3.50;;;17.50;89.70;;;;;;5034168;28;20057;-74
2023/07/27 11:43:59;;;;;;;5.07;2.93;;;17.50;89.80;;;;;;5048215;28;20591;-74
2023/07/27 11:46:28;;;;;;;5.70;3.60;;;17.50;89.80;;;;;;5046244;28;20053;-74
2023/07/27 11:48:56;;;;;;;5.35;3.72;;;17.50;89.80;;;;;;5046747;28;20136;-74
2023/07/27 11:51:26;;;;;;;5.45;3.22;;;17.50;89.80;;;;;;5052775;28;20451;-76
2023/07/27 11:53:54;;;;;;;5.47;3.20;;;17.60;89.80;;;;;;5050389;28;20080;-74
2023/07/27 11:56:21;;;;;;;5.23;3.17;;;17.60;89.90;;;;;;5031443;28;20124;-73
2023/07/27 11:58:48;;;;;;;5.30;3.17;;;17.60;89.80;;;;;;5042241;28;20046;-74
2023/07/27 12:01:16;;;;;;;5.00;3.20;;;17.60;89.60;;;;;;5050711;28;20056;-74
2023/07/27 12:03:45;;;;;;;5.13;3.00;;;17.70;89.80;;;;;;5062038;28;20586;-74
2023/07/27 12:06:11;;;;;;;4.55;2.80;;;17.70;89.70;;;;;;5053617;28;20732;-73
2023/07/27 12:08:39;;;;;;;4.57;2.97;;;17.80;89.70;;;;;;5044725;28;20320;-74
2023/07/27 12:11:06;;;;;;;5.32;2.58;;;17.80;89.70;;;;;;5046199;28;20076;-74
2023/07/27 12:13:36;;;;;;;4.60;2.80;;;17.80;89.70;;;;;;5046533;28;20107;-74
2023/07/27 12:16:06;;;;;;;4.00;2.17;;;17.80;89.70;;;;;;5044748;28;20474;-74
2023/07/27 12:18:33;;;;;;;4.40;2.60;;;17.80;89.70;;;;;;5082021;28;20099;-74
2023/07/27 12:21:02;;;;;;;5.10;3.00;;;17.90;89.40;;;;;;5048126;28;20079;-73
2023/07/27 12:23:29;;;;;;;6.40;3.17;;;17.90;89.50;;;;;;5049729;28;20526;-74
2023/07/27 12:25:56;;;;;;;4.95;2.60;;;17.90;89.30;;;;;;5045239;28;20053;-73
2023/07/27 12:28:23;;;;;;;6.93;3.30;;;18.00;89.40;;;;;;5048423;28;20497;-74
2023/07/27 12:30:51;;;;;;;5.43;3.40;;;18.00;89.40;;;;;;5048090;28;20123;-74
2023/07/27 12:33:21;;;;;;;6.10;3.07;;;18.00;89.60;;;;;;5046751;28;20061;-73
2023/07/27 12:35:50;;;;;;;4.82;3.00;;;18.00;89.60;;;;;;5045596;28;20059;-74
2023/07/27 12:38:19;;;;;;;5.53;2.88;;;18.00;89.60;;;;;;5048118;28;20517;-74
2023/07/27 12:40:48;;;;;;;4.80;2.95;;;18.10;89.60;;;;;;5047516;28;20053;-74
2023/07/27 12:43:15;;;;;;;6.00;3.40;;;18.10;89.50;;;;;;5054530;28;20049;-74
2023/07/27 12:45:42;;;;;;;5.40;3.17;;;18.10;89.40;;;;;;5039167;28;20811;-74
2023/07/27 12:48:09;;;;;;;5.20;2.83;;;18.10;89.40;;;;;;5069389;28;20052;-75
2023/07/27 12:50:36;;;;;;;5.68;3.10;;;18.10;89.50;;;;;;5052924;28;20059;-75